• Join FlightAware (Why Join?)
  • Login
  • US Flag 
03:06AM EDT


 

Airport Tracker/Info


-or-


 

Live Flight TrackerFlight Track Log ✈ VH-BDP ✈ 03-May-2014 ✈ YPJT / JAD - YMDN

Flight Track Log - Related Links

Times and Time Zones

All times are in EDT time to prevent confusion due to time zone crossing. See the VH-BDP flight status page for this flight to view local times or setup timezone preferences in your user account.

Time Position Orientation Groundspeed Altitude Reporting Facility
EDT Latitude Longitude Course Direction KTS MPH feet Rate Location/Type
10:53PM -32.0881 115.9046 134° Southeast 75 86 900  Level Aus ATC (RADAR)
10:55PM -32.1609 115.9950 134° Southeast 106 122 1,500 420 Climbing Aus ATC (RADAR)
10:57PM -32.1414 116.1184 79° East 92 106 2,900 240 Climbing Aus ATC (RADAR)
11:00PM -32.1386 116.1258 66° East 87 100 3,000  Climbing Aus ATC (RADAR)
11:02PM -32.1381 116.1083 272° West 104 120 3,000  Level Aus ATC (RADAR)
11:04PM -32.1387 116.1314 92° East 94 108 3,000  Level Aus ATC (RADAR)
11:06PM -32.1401 116.1261 253° West 100 115 3,000 -60 Level Aus ATC (RADAR)
11:17PM -32.0076 116.2194 39° Northeast 118 136 2,500 -60 Descending Aus ATC (RADAR)
11:18PM -31.9297 116.2972 40° Northeast 117 135 2,500  Level Aus ATC (RADAR)
11:21PM -31.8066 116.4321 227° Southwest 3,000 120 Climbing Aus ATC (Calculated)
11:23PM -31.8336 116.3980 227° Southwest  Level FlightAware Approximate
11:24PM -31.8514 116.3755 227° Southwest  Level FlightAware Approximate
11:25PM -31.8578 116.3666 44° Northeast  Level FlightAware Approximate
11:26PM -31.8391 116.3881 44° Northeast  Level FlightAware Approximate
11:26PM -31.7812 116.6096 257° West  Level Aus ATC (Calculated)
11:27PM -31.8204 116.4096 44° Northeast  Level FlightAware Approximate
11:28PM -31.8017 116.4311 44° Northeast  Level FlightAware Approximate
11:29PM -31.7277 116.5861 340° North  Level FlightAware Approximate
11:30PM -31.7032 116.5754 340° North  Level FlightAware Approximate
11:31PM -31.6787 116.5646 340° North  Level FlightAware Approximate
11:32PM -31.7032 116.5754 160° South  Level FlightAware Approximate
11:33PM -31.6787 116.5646 340° North  Level FlightAware Approximate
11:34PM -31.6811 116.5932 84° East  Level FlightAware Approximate
11:35PM -31.6785 116.6237 84° East  Level FlightAware Approximate
11:36PM -31.6759 116.6543 84° East  Level FlightAware Approximate
11:37PM -31.6733 116.6849 84° East  Level FlightAware Approximate
11:38PM -31.6707 116.7155 84° East  Level FlightAware Approximate
11:39PM -31.6681 116.7461 84° East  Level FlightAware Approximate
11:40PM -31.6655 116.7766 84° East  Level FlightAware Approximate
11:41PM -31.6628 116.8072 84° East  Level FlightAware Approximate
11:42PM -31.6602 116.8378 84° East  Level FlightAware Approximate
11:43PM -31.6576 116.8683 84° East  Level FlightAware Approximate
11:44PM -31.6549 116.8989 84° East  Level FlightAware Approximate
11:45PM -31.6523 116.9295 84° East  Level FlightAware Approximate
11:46PM -31.6496 116.9601 84° East  Level FlightAware Approximate
11:47PM -31.6469 116.9906 84° East  Level FlightAware Approximate
11:48PM -31.6442 117.0212 84° East  Level FlightAware Approximate
11:48PM -31.6712 117.3593 276° West  Level Aus ATC (Calculated)
11:49PM -31.6415 117.0517 84° East  Level FlightAware Approximate
11:50PM -31.6660 117.3936 80° East  Level FlightAware Approximate
11:51PM -31.6615 117.4239 80° East  Level FlightAware Approximate
11:51PM -31.6622 117.4195 80° East  Level Aus ATC (Calculated)
11:52PM -31.6569 117.4541 80° East  Level FlightAware Approximate
11:53PM -31.6524 117.4844 80° East  Level FlightAware Approximate
11:54PM -31.6478 117.5146 80° East  Level FlightAware Approximate
11:55PM -31.6481 117.5128 80° East  Level FlightAware Approximate
11:56PM -31.6435 117.5430 80° East  Level FlightAware Approximate
11:57PM -31.6390 117.5733 80° East  Level FlightAware Approximate
11:58PM -31.6344 117.6035 80° East  Level FlightAware Approximate
11:59PM -31.6298 117.6337 80° East  Level FlightAware Approximate
12:00AM -31.6252 117.6640 80° East  Level FlightAware Approximate
12:01AM -31.6206 117.6942 80° East  Level FlightAware Approximate
12:02AM -31.6159 117.7244 80° East  Level FlightAware Approximate
12:03AM -31.6113 117.7547 80° East  Level FlightAware Approximate
12:04AM -31.6067 117.7849 80° East  Level FlightAware Approximate
12:05AM -31.6020 117.8151 80° East  Level FlightAware Approximate
12:06AM -31.5974 117.8453 80° East  Level FlightAware Approximate
12:07AM -31.5927 117.8755 80° East  Level FlightAware Approximate
12:08AM -31.5881 117.9058 80° East  Level FlightAware Approximate
12:09AM -31.5834 117.9360 80° East  Level FlightAware Approximate
12:10AM -31.5787 117.9662 80° East  Level FlightAware Approximate
12:11AM -31.5741 117.9964 80° East  Level FlightAware Approximate
12:12AM -31.5694 118.0266 80° East  Level FlightAware Approximate
12:13AM -31.5647 118.0568 80° East  Level FlightAware Approximate
12:14AM -31.5600 118.0870 80° East  Level FlightAware Approximate
12:15AM -31.5553 118.1172 80° East  Level FlightAware Approximate
12:16AM -31.5505 118.1473 80° East  Level FlightAware Approximate
12:17AM -31.5458 118.1775 80° East  Level FlightAware Approximate
12:18AM -31.5411 118.2077 80° East  Level FlightAware Approximate
12:19AM -31.5364 118.2379 80° East  Level FlightAware Approximate
12:20AM -31.5316 118.2681 80° East  Level FlightAware Approximate
12:21AM -31.5268 118.2982 80° East  Level FlightAware Approximate
12:22AM -31.5221 118.3284 80° East  Level FlightAware Approximate
12:23AM -31.5251 118.3221 260° West  Level Estimated
12:24AM -31.5251 118.3221 323° Northwest  Level Estimated
12:25AM -31.5251 118.3221 323° Northwest  Level Estimated
12:26AM -31.5251 118.3221 323° Northwest  Level Estimated
12:27AM -31.5251 118.3221 323° Northwest  Level Estimated
12:28AM -31.5251 118.3221 323° Northwest  Level Estimated
12:29AM -31.5233 118.3206 84° East  Level FlightAware Approximate
12:30AM -31.5251 118.3221 143° Southeast  Level Estimated
12:31AM -31.5251 118.3221 North  Level Estimated